Time;durP1;ratioP1;P1;durP2;ratioP2;P2;SDS_P1;SDS_P2;PMS_P1;PMS_P2;Temp;Humidity;BMP_temperature;BMP_pressure;BME280_temperature;BME280_humidity;BME280_pressure;Samples;Min_cycle;Max_cycle;Signal;HPM_P1;HPM_P2
2023/08/27 00:01:24;;;;;;;2.30;2.10;;;;;;;14.57;91.60;100967.97;5032395;28;20029;-67
2023/08/27 00:03:49;;;;;;;3.67;2.20;;;;;;;14.48;92.08;100958.44;5035348;28;20546;-66
2023/08/27 00:06:14;;;;;;;3.15;2.33;;;;;;;14.54;91.82;100968.34;5033848;28;20546;-67
2023/08/27 00:08:40;;;;;;;3.00;2.05;;;;;;;14.52;91.74;100957.03;5033597;28;20087;-66
2023/08/27 00:11:05;;;;;;;6.13;2.05;;;;;;;14.51;91.52;100953.53;5034950;28;20034;-66
2023/08/27 00:13:31;;;;;;;3.47;2.00;;;;;;;14.48;91.60;100951.25;5029530;28;20021;-66
2023/08/27 00:15:56;;;;;;;3.80;2.17;;;;;;;14.47;91.56;100948.78;5028731;28;20027;-67
2023/08/27 00:18:21;;;;;;;3.83;2.17;;;;;;;14.49;91.85;100944.88;5035245;28;20110;-67
2023/08/27 00:20:48;;;;;;;3.47;2.17;;;;;;;14.48;92.00;100929.88;5026651;28;21554;-67
2023/08/27 00:23:13;;;;;;;2.85;2.55;;;;;;;14.48;91.94;100929.88;5026565;28;20035;-67
2023/08/27 00:25:39;;;;;;;2.92;2.67;;;;;;;14.46;91.96;100926.56;5030006;28;20037;-67
2023/08/27 00:28:05;;;;;;;3.42;2.42;;;;;;;14.45;92.15;100916.88;5039950;28;20643;-67
2023/08/27 00:30:31;;;;;;;4.60;2.65;;;;;;;14.43;92.01;100916.25;5041040;28;20604;-67
2023/08/27 00:32:56;;;;;;;4.38;2.67;;;;;;;14.39;92.00;100901.59;5031673;28;20022;-67
2023/08/27 00:35:21;;;;;;;3.22;2.65;;;;;;;14.39;92.02;100893.56;5030991;28;20029;-66
2023/08/27 00:37:46;;;;;;;5.75;2.72;;;;;;;14.39;92.46;100893.56;5035135;28;20037;-67
2023/08/27 00:40:13;;;;;;;3.05;2.40;;;;;;;14.43;92.37;100897.53;5032282;28;20541;-66
2023/08/27 00:42:38;;;;;;;2.85;2.30;;;;;;;14.45;92.56;100887.47;5036639;28;20095;-67
2023/08/27 00:45:04;;;;;;;3.78;2.30;;;;;;;14.45;92.27;100892.00;5033664;28;20486;-66
2023/08/27 00:47:30;;;;;;;2.92;2.63;;;;;;;14.44;92.14;100890.34;5035623;28;20102;-67
2023/08/27 00:49:56;;;;;;;3.28;2.40;;;;;;;14.38;92.14;100893.75;5036837;28;20100;-67
2023/08/27 00:52:23;;;;;;;2.95;2.28;;;;;;;14.31;91.95;100876.88;5042953;28;20033;-67
2023/08/27 00:54:48;;;;;;;3.85;2.40;;;;;;;14.26;91.97;100880.94;5031507;28;20026;-67
2023/08/27 00:57:14;;;;;;;4.45;2.78;;;;;;;14.22;92.12;100881.53;5039864;28;20024;-67
2023/08/27 00:59:40;;;;;;;3.92;2.58;;;;;;;14.20;92.43;100872.91;5030780;28;20091;-66
2023/08/27 01:02:06;;;;;;;5.03;3.05;;;;;;;14.20;92.51;100873.72;5038385;28;20026;-67
2023/08/27 01:04:31;;;;;;;5.30;3.00;;;;;;;14.22;92.67;100874.34;5035458;28;20036;-67
2023/08/27 01:07:07;;;;;;;4.72;2.97;;;;;;;14.17;92.63;100876.78;5033859;28;20173;-67
2023/08/27 01:09:37;;;;;;;3.25;2.58;;;;;;;14.10;92.53;100867.03;5037682;28;20028;-67
2023/08/27 01:12:23;;;;;;;4.07;2.65;;;;;;;14.07;92.93;100870.09;5037037;28;20447;-67
2023/08/27 01:14:52;;;;;;;3.13;2.35;;;;;;;14.03;92.54;100876.84;5035976;28;20531;-66
2023/08/27 01:17:20;;;;;;;4.32;2.65;;;;;;;13.97;92.70;100870.44;5034206;28;20036;-67
2023/08/27 01:19:46;;;;;;;4.95;2.42;;;;;;;13.93;93.23;100862.00;5033699;28;20389;-66
2023/08/27 01:22:11;;;;;;;4.32;2.60;;;;;;;13.96;93.37;100858.09;5038122;28;20025;-66
2023/08/27 01:24:36;;;;;;;3.70;2.42;;;;;;;13.99;93.46;100862.22;5041757;28;20043;-67
2023/08/27 01:27:12;;;;;;;4.50;2.80;;;;;;;13.99;93.28;100855.03;5033668;28;20036;-66
2023/08/27 01:29:54;;;;;;;3.10;2.25;;;;;;;13.94;93.59;100852.97;5035851;28;20132;-66
2023/08/27 01:32:41;;;;;;;3.05;2.50;;;;;;;13.89;93.33;100855.38;5032900;28;20064;-66
2023/08/27 01:35:09;;;;;;;5.28;3.05;;;;;;;13.80;93.17;100861.84;5035757;28;20100;-66
2023/08/27 01:37:36;;;;;;;5.50;2.90;;;;;;;13.74;93.49;100857.28;5033160;28;20490;-67
2023/08/27 01:40:05;;;;;;;4.75;3.13;;;;;;;13.72;93.68;100855.81;5027665;28;20118;-66
2023/08/27 01:42:36;;;;;;;4.45;2.92;;;;;;;13.66;93.79;100846.75;5036324;28;20053;-67
2023/08/27 01:45:09;;;;;;;4.63;3.20;;;;;;;13.70;94.12;100849.84;5041680;28;20029;-66
2023/08/27 01:47:35;;;;;;;5.07;2.95;;;;;;;13.70;94.32;100841.84;5030095;28;20048;-67
2023/08/27 01:50:00;;;;;;;6.18;2.83;;;;;;;13.68;94.62;100844.69;5038752;28;20620;-66
2023/08/27 01:52:25;;;;;;;4.50;2.60;;;;;;;13.66;95.02;100861.94;5038608;28;20028;-66
2023/08/27 01:54:50;;;;;;;6.22;2.50;;;;;;;13.63;94.93;100863.13;5041323;28;20020;-67
2023/08/27 01:57:16;;;;;;;6.97;2.70;;;;;;;13.62;95.28;100840.13;5034377;28;20025;-66
2023/08/27 01:59:41;;;;;;;3.88;2.50;;;;;;;13.62;95.65;100832.97;5037934;28;20432;-66
2023/08/27 02:02:06;;;;;;;3.13;2.25;;;;;;;13.66;95.73;100828.06;5043306;28;20033;-66
2023/08/27 02:04:32;;;;;;;3.95;2.10;;;;;;;13.66;95.77;100830.72;5042690;28;20032;-66
2023/08/27 02:06:57;;;;;;;3.00;2.38;;;;;;;13.66;95.58;100827.22;5030550;28;20038;-66
2023/08/27 02:09:22;;;;;;;2.83;2.10;;;;;;;13.66;96.08;100825.38;5041665;28;20098;-67
2023/08/27 02:11:49;;;;;;;4.78;2.20;;;;;;;13.66;95.75;100836.06;5045540;28;20029;-67
2023/08/27 02:14:14;;;;;;;2.28;2.08;;;;;;;13.63;96.19;100834.59;5042517;28;20024;-67
2023/08/27 02:16:40;;;;;;;4.30;2.28;;;;;;;13.62;95.95;100835.63;5035581;28;20636;-67
2023/08/27 02:19:05;;;;;;;4.82;2.42;;;;;;;13.62;95.95;100837.47;5049302;28;20426;-67
2023/08/27 02:21:30;;;;;;;3.28;2.30;;;;;;;13.61;95.94;100828.63;5041464;28;20391;-67
2023/08/27 02:23:56;;;;;;;3.72;2.25;;;;;;;13.60;96.23;100832.31;5045556;28;20390;-66
2023/08/27 02:26:21;;;;;;;5.88;2.42;;;;;;;13.59;96.23;100830.66;5038555;28;20029;-66
2023/08/27 02:28:47;;;;;;;3.38;2.60;;;;;;;13.59;96.45;100829.84;5043664;28;20052;-66
2023/08/27 02:31:12;;;;;;;4.10;2.45;;;;;;;13.58;96.75;100830.84;5036109;28;20033;-67
2023/08/27 02:33:38;;;;;;;2.95;2.50;;;;;;;13.58;96.95;100826.31;5039538;28;20222;-66
2023/08/27 02:36:04;;;;;;;3.92;2.70;;;;;;;13.58;97.23;100839.66;5037127;28;20031;-66
2023/08/27 02:38:29;;;;;;;4.38;2.72;;;;;;;13.60;97.34;100835.00;5037787;28;20021;-67
2023/08/27 02:40:54;;;;;;;3.85;2.92;;;;;;;13.63;97.73;100839.13;5040219;28;20031;-67
2023/08/27 02:43:20;;;;;;;5.75;2.75;;;;;;;13.66;97.83;100841.41;5041970;28;20668;-67
2023/08/27 02:45:47;;;;;;;7.47;3.05;;;;;;;13.67;97.74;100844.91;5037377;28;20024;-66
2023/08/27 02:48:12;;;;;;;4.82;2.80;;;;;;;13.68;97.96;100841.22;5045245;28;20044;-66
2023/08/27 02:50:37;;;;;;;5.93;3.15;;;;;;;13.69;98.00;100837.53;5033570;28;20490;-67
2023/08/27 02:53:03;;;;;;;4.40;3.22;;;;;;;13.67;98.30;100848.38;5037732;28;20144;-67
2023/08/27 02:55:28;;;;;;;4.20;3.30;;;;;;;13.67;98.44;100839.56;5034942;28;20104;-67
2023/08/27 02:57:54;;;;;;;4.80;3.30;;;;;;;13.63;98.82;100841.78;5047165;28;20029;-66
2023/08/27 03:00:19;;;;;;;5.15;3.22;;;;;;;13.61;99.30;100841.16;5044459;28;20479;-66
2023/08/27 03:02:44;;;;;;;4.75;3.22;;;;;;;13.59;99.32;100851.19;5041010;28;20028;-67
2023/08/27 03:05:10;;;;;;;6.75;3.20;;;;;;;13.57;99.77;100858.53;5033647;28;20049;-67
2023/08/27 03:07:35;;;;;;;4.03;3.08;;;;;;;13.55;100.00;100853.38;5044329;28;20032;-66
2023/08/27 03:10:00;;;;;;;3.80;3.13;;;;;;;13.52;100.00;100852.94;5040597;28;20033;-67
2023/08/27 03:12:25;;;;;;;6.47;3.45;;;;;;;13.53;100.00;100863.41;5036959;28;20033;-67
2023/08/27 03:14:51;;;;;;;3.60;3.30;;;;;;;13.51;100.00;100865.44;5045833;28;20028;-67
2023/08/27 03:17:16;;;;;;;5.28;3.58;;;;;;;13.50;100.00;100874.47;5038878;28;20048;-67
2023/08/27 03:19:41;;;;;;;4.18;3.40;;;;;;;13.49;100.00;100872.81;5029321;28;20439;-67
2023/08/27 03:22:06;;;;;;;4.38;3.60;;;;;;;13.45;100.00;100866.22;5033257;28;20029;-67
2023/08/27 03:24:32;;;;;;;8.50;3.78;;;;;;;13.43;100.00;100870.91;5038610;28;20487;-67
2023/08/27 03:26:58;;;;;;;6.65;3.70;;;;;;;13.43;100.00;100878.09;5040712;28;20040;-67
2023/08/27 03:29:23;;;;;;;6.30;3.72;;;;;;;13.40;100.00;100867.81;5041064;28;20025;-67
2023/08/27 03:31:48;;;;;;;5.38;3.25;;;;;;;13.36;100.00;100875.34;5038177;28;20589;-67
2023/08/27 03:34:14;;;;;;;6.53;3.97;;;;;;;13.35;100.00;100870.22;5044709;28;20455;-67
2023/08/27 03:36:40;;;;;;;7.43;3.50;;;;;;;13.33;100.00;100865.06;5044462;28;20614;-67
2023/08/27 03:39:05;;;;;;;6.13;3.63;;;;;;;13.30;100.00;100863.59;5035181;28;20033;-67
2023/08/27 03:41:31;;;;;;;5.30;3.75;;;;;;;13.25;100.00;100849.97;5027974;28;20067;-67
2023/08/27 03:43:56;;;;;;;5.03;3.35;;;;;;;13.30;100.00;100857.44;5039393;28;20151;-67
2023/08/27 03:46:21;;;;;;;6.75;3.70;;;;;;;13.32;100.00;100856.25;5043084;28;20025;-67
2023/08/27 03:48:47;;;;;;;5.93;3.55;;;;;;;13.31;100.00;100848.44;5035567;28;20032;-67
2023/08/27 03:51:12;;;;;;;5.93;3.38;;;;;;;13.31;100.00;100848.44;5036442;28;20506;-68
2023/08/27 03:53:38;;;;;;;6.20;3.40;;;;;;;13.31;100.00;100840.44;5030525;28;20025;-67
2023/08/27 03:56:03;;;;;;;5.55;3.60;;;;;;;13.31;100.00;100843.91;5039289;28;20044;-67
2023/08/27 03:58:29;;;;;;;5.53;3.50;;;;;;;13.31;100.00;100835.91;5037459;28;20048;-67
2023/08/27 04:00:54;;;;;;;5.68;3.20;;;;;;;13.33;100.00;100833.06;5047511;28;20036;-67
2023/08/27 04:03:19;;;;;;;5.63;3.28;;;;;;;13.38;100.00;100832.50;5035199;28;20033;-67
2023/08/27 04:05:49;;;;;;;7.25;3.22;;;;;;;13.45;100.00;100828.03;5041485;28;20534;-67
2023/08/27 04:08:14;;;;;;;4.30;2.80;;;;;;;13.47;100.00;100832.16;5042806;28;20102;-68
2023/08/27 04:10:47;;;;;;;3.40;2.90;;;;;;;13.50;100.00;100836.28;5043914;28;20538;-67
2023/08/27 04:13:12;;;;;;;7.82;3.17;;;;;;;13.52;100.00;100823.59;5045786;28;20159;-67
2023/08/27 04:15:37;;;;;;;5.40;3.30;;;;;;;13.56;100.00;100830.19;5039842;28;20108;-68
2023/08/27 04:18:03;;;;;;;5.40;3.10;;;;;;;13.59;100.00;100819.16;5039433;28;20033;-67
2023/08/27 04:20:30;;;;;;;5.10;3.08;;;;;;;13.64;100.00;100812.25;5035518;28;20469;-67
2023/08/27 04:22:55;;;;;;;5.15;3.25;;;;;;;13.66;100.00;100827.22;5032939;28;20040;-67
2023/08/27 04:25:20;;;;;;;5.05;2.92;;;;;;;13.68;100.00;100833.19;5041508;28;20025;-67
2023/08/27 04:27:45;;;;;;;5.45;3.20;;;;;;;13.67;100.00;100832.38;5036448;28;20503;-67
2023/08/27 04:30:12;;;;;;;4.90;3.30;;;;;;;13.70;100.00;100829.31;5042439;28;20037;-67
2023/08/27 04:32:37;;;;;;;6.43;3.25;;;;;;;13.71;100.00;100832.81;5039351;28;20029;-67
2023/08/27 04:35:04;;;;;;;4.93;3.40;;;;;;;13.72;100.00;100837.97;5033788;28;20610;-67
2023/08/27 04:37:29;;;;;;;4.68;3.10;;;;;;;13.72;100.00;100829.13;5034945;28;20025;-67
2023/08/27 04:39:55;;;;;;;6.05;3.10;;;;;;;13.73;100.00;100831.59;5033085;28;20028;-67
2023/08/27 04:42:20;;;;;;;5.28;3.05;;;;;;;13.71;100.00;100824.81;5039231;28;20123;-67
2023/08/27 04:44:45;;;;;;;4.15;3.60;;;;;;;13.70;100.00;100826.66;5036598;28;20079;-67
2023/08/27 04:47:10;;;;;;;6.53;3.45;;;;;;;13.72;100.00;100829.13;5040018;28;20096;-67
2023/08/27 04:49:36;;;;;;;4.20;3.20;;;;;;;13.75;100.00;100823.41;5038558;28;20457;-67
2023/08/27 04:52:03;;;;;;;6.35;3.30;;;;;;;13.74;100.00;100819.91;5039891;28;20039;-67
2023/08/27 04:54:29;;;;;;;4.93;3.38;;;;;;;13.73;100.00;100820.94;5034891;28;20037;-66
2023/08/27 04:56:54;;;;;;;3.97;2.97;;;;;;;13.75;100.00;100828.75;5031345;28;20043;-67
2023/08/27 04:59:19;;;;;;;3.50;3.13;;;;;;;13.75;100.00;100834.91;5040557;28;20075;-66
2023/08/27 05:01:44;;;;;;;3.75;3.15;;;;;;;13.78;100.00;100839.03;5039930;28;20446;-66
2023/08/27 05:04:10;;;;;;;8.63;3.15;;;;;;;13.76;100.00;100849.06;5040637;28;20021;-67
2023/08/27 05:06:35;;;;;;;5.03;3.13;;;;;;;13.75;100.00;100848.25;5041584;28;20091;-67
2023/08/27 05:09:00;;;;;;;5.18;3.10;;;;;;;13.71;100.00;100843.50;5048607;28;20124;-67
2023/08/27 05:11:25;;;;;;;5.85;3.22;;;;;;;13.68;100.00;100854.56;5038089;28;20391;-67
2023/08/27 05:13:51;;;;;;;5.07;3.10;;;;;;;13.71;100.00;100854.16;5045841;28;20031;-67
2023/08/27 05:16:16;;;;;;;4.60;3.15;;;;;;;13.67;100.00;100859.06;5043337;28;20623;-67
2023/08/27 05:18:41;;;;;;;5.45;3.20;;;;;;;13.68;100.00;100850.03;5040910;28;20029;-66
2023/08/27 05:21:07;;;;;;;7.55;3.35;;;;;;;13.68;100.00;100857.22;5044214;28;20021;-66
2023/08/27 05:23:32;;;;;;;5.30;3.33;;;;;;;13.66;100.00;100859.25;5043003;28;20095;-66
2023/08/27 05:25:57;;;;;;;6.15;3.20;;;;;;;13.62;100.00;100850.81;5037286;28;20039;-67
2023/08/27 05:28:22;;;;;;;6.47;3.10;;;;;;;13.61;100.00;100841.16;5037836;28;20040;-66
2023/08/27 05:30:48;;;;;;;4.45;3.05;;;;;;;13.68;100.00;100841.22;5034787;28;20039;-66
2023/08/27 05:33:13;;;;;;;8.18;3.10;;;;;;;13.64;100.00;100838.09;5042824;28;20441;-66
2023/08/27 05:35:39;;;;;;;5.28;2.95;;;;;;;13.61;100.00;100846.50;5042265;28;20024;-66
2023/08/27 05:38:05;;;;;;;5.55;2.70;;;;;;;13.57;100.00;100843.34;5045310;28;20409;-66
2023/08/27 05:40:30;;;;;;;5.32;3.20;;;;;;;13.54;100.00;100842.91;5033729;28;20029;-66
2023/08/27 05:42:55;;;;;;;4.38;3.00;;;;;;;13.49;100.00;100840.81;5041743;28;20016;-67
2023/08/27 05:45:21;;;;;;;5.22;3.20;;;;;;;13.48;100.00;100841.00;5030789;28;20048;-66
2023/08/27 05:47:46;;;;;;;4.15;2.97;;;;;;;13.45;100.00;100844.06;5038303;28;20013;-66
2023/08/27 05:50:11;;;;;;;5.47;3.00;;;;;;;13.42;100.00;100844.44;5031547;28;20029;-67
2023/08/27 05:52:36;;;;;;;7.80;3.25;;;;;;;13.40;100.00;100843.78;5047006;28;20028;-67
2023/08/27 05:55:02;;;;;;;5.72;3.05;;;;;;;13.36;100.00;100839.84;5048691;28;20553;-66
2023/08/27 05:57:27;;;;;;;3.88;3.50;;;;;;;13.34;100.00;100837.38;5043142;28;20048;-67
2023/08/27 05:59:52;;;;;;;6.55;3.38;;;;;;;13.29;100.00;100832.59;5042973;28;20649;-67
2023/08/27 06:02:18;;;;;;;5.72;3.33;;;;;;;13.28;100.00;100841.59;5041244;28;20083;-66
2023/08/27 06:04:43;;;;;;;5.43;3.55;;;;;;;13.27;100.00;100842.63;5043599;28;20083;-66
2023/08/27 06:07:09;;;;;;;5.93;3.55;;;;;;;13.27;100.00;100831.13;5040882;28;20040;-66
2023/08/27 06:09:35;;;;;;;6.40;3.47;;;;;;;13.27;100.00;100831.13;5044928;28;20029;-66
2023/08/27 06:12:00;;;;;;;6.05;3.78;;;;;;;13.26;100.00;100837.47;5042168;28;20024;-66
2023/08/27 06:14:25;;;;;;;9.27;3.35;;;;;;;13.29;100.00;100827.25;5043745;28;20423;-66
2023/08/27 06:16:50;;;;;;;8.65;4.28;;;;;;;13.37;100.00;100830.84;5039854;28;20021;-67
2023/08/27 06:19:16;;;;;;;7.75;3.75;;;;;;;13.39;100.00;100823.47;5033346;28;20513;-66
2023/08/27 06:21:41;;;;;;;6.15;3.88;;;;;;;13.42;100.00;100817.75;5029321;28;20035;-67
2023/08/27 06:24:06;;;;;;;4.57;3.45;;;;;;;13.43;100.00;100817.56;5039661;28;20017;-67
2023/08/27 06:26:31;;;;;;;4.82;3.83;;;;;;;13.47;100.00;100815.34;5038867;28;20095;-67
2023/08/27 06:28:57;;;;;;;5.03;4.03;;;;;;;13.48;100.00;100812.47;5036946;28;20056;-67
2023/08/27 06:31:22;;;;;;;8.50;3.92;;;;;;;13.50;100.00;100806.94;5041225;28;20380;-67
2023/08/27 06:33:47;;;;;;;9.50;4.20;;;;;;;13.52;100.00;100813.75;5036728;28;20104;-67
2023/08/27 06:36:13;;;;;;;6.60;4.18;;;;;;;13.57;100.00;100807.84;5032047;28;20029;-67
2023/08/27 06:38:38;;;;;;;7.60;4.43;;;;;;;13.58;100.00;100812.97;5039957;28;20028;-66
2023/08/27 06:41:04;;;;;;;7.28;4.50;;;;;;;13.61;100.00;100812.63;5035140;28;20116;-67
2023/08/27 06:43:29;;;;;;;8.20;4.45;;;;;;;13.65;100.00;100818.41;5042846;28;20117;-67
2023/08/27 06:45:54;;;;;;;6.65;4.78;;;;;;;13.68;100.00;100806.50;5040153;28;20115;-67
2023/08/27 06:48:19;;;;;;;10.30;4.88;;;;;;;13.72;100.00;100816.63;5035656;28;20036;-67
2023/08/27 06:50:45;;;;;;;6.72;5.10;;;;;;;13.73;100.00;100810.25;5035751;28;20033;-67
2023/08/27 06:53:10;;;;;;;7.15;4.97;;;;;;;13.78;100.00;100810.50;5043533;28;20574;-67
2023/08/27 06:55:36;;;;;;;8.38;4.88;;;;;;;13.81;100.00;100812.78;5039946;28;20424;-67
2023/08/27 06:58:01;;;;;;;7.60;5.07;;;;;;;13.86;100.00;100805.00;5042335;28;20029;-67
2023/08/27 07:00:26;;;;;;;7.28;4.88;;;;;;;13.91;100.00;100815.16;5038577;28;20034;-67
2023/08/27 07:02:52;;;;;;;6.10;5.28;;;;;;;13.94;100.00;100818.25;5033589;28;20569;-67
2023/08/27 07:05:18;;;;;;;7.32;5.45;;;;;;;14.02;100.00;100821.78;5039212;28;20021;-67
2023/08/27 07:07:44;;;;;;;7.47;5.38;;;;;;;14.08;100.00;100829.03;5045143;28;20019;-67
2023/08/27 07:10:10;;;;;;;9.40;5.78;;;;;;;14.09;100.00;100820.00;5043077;28;20044;-66
2023/08/27 07:12:36;;;;;;;8.15;5.97;;;;;;;14.16;100.00;100827.03;5033002;28;20060;-67
2023/08/27 07:15:05;;;;;;;8.57;5.57;;;;;;;14.23;100.00;100835.94;5038526;28;20026;-67
2023/08/27 07:17:33;;;;;;;;;;;;;;;14.27;100.00;100833.69;5039647;28;20107;-67
2023/08/27 07:19:58;;;;;;;8.02;5.75;;;;;;;14.32;100.00;100830.44;5036973;28;19908;-67
2023/08/27 07:22:23;;;;;;;9.07;5.88;;;;;;;14.38;100.00;100832.31;5047463;28;20108;-67
2023/08/27 07:24:49;;;;;;;11.82;6.10;;;;;;;14.45;100.00;100831.38;5041052;28;20533;-67
2023/08/27 07:27:14;;;;;;;11.45;6.47;;;;;;;14.50;100.00;100831.63;5032741;28;20033;-67
2023/08/27 07:29:39;;;;;;;10.80;6.30;;;;;;;14.56;100.00;100830.84;5037447;28;20553;-67
2023/08/27 07:32:05;;;;;;;14.25;6.32;;;;;;;14.61;100.00;100835.59;5048146;28;20039;-67
2023/08/27 07:34:30;;;;;;;10.40;6.25;;;;;;;14.65;100.00;100836.84;5042493;28;20022;-66
2023/08/27 07:36:56;;;;;;;9.98;6.18;;;;;;;14.71;100.00;100838.72;5032343;28;20021;-67
2023/08/27 07:39:22;;;;;;;11.07;6.55;;;;;;;14.77;100.00;100834.44;5032817;28;20548;-67
2023/08/27 07:41:49;;;;;;;10.20;6.50;;;;;;;14.83;100.00;100842.50;5044549;28;20039;-67
2023/08/27 07:44:14;;;;;;;9.80;6.65;;;;;;;14.88;100.00;100833.88;5038980;28;20021;-67
2023/08/27 07:46:41;;;;;;;13.55;7.50;;;;;;;14.93;100.00;100831.44;5030256;28;20498;-67
2023/08/27 07:49:06;;;;;;;11.45;7.00;;;;;;;15.03;100.00;100845.25;5033117;28;20030;-67
2023/08/27 07:51:31;;;;;;;7.88;6.50;;;;;;;15.10;100.00;100832.75;5043594;28;20032;-67
2023/08/27 07:53:56;;;;;;;10.18;7.03;;;;;;;15.22;100.00;100832.16;5045313;28;20017;-67
2023/08/27 07:56:22;;;;;;;10.07;6.47;;;;;;;15.24;100.00;100830.09;5044290;28;20029;-67
2023/08/27 07:58:47;;;;;;;13.65;7.25;;;;;;;15.35;100.00;100832.22;5041724;28;20033;-67
2023/08/27 08:01:12;;;;;;;10.13;6.18;;;;;;;15.38;100.00;100834.47;5038598;28;20029;-67
2023/08/27 08:03:37;;;;;;;9.43;5.65;;;;;;;15.40;100.00;100837.78;5042979;28;20537;-67
2023/08/27 08:06:03;;;;;;;8.23;5.80;;;;;;;15.49;100.00;100834.69;5044336;28;20035;-67
2023/08/27 08:08:29;;;;;;;9.80;5.88;;;;;;;15.59;100.00;100831.66;5030299;28;20037;-67
2023/08/27 08:10:55;;;;;;;9.00;6.35;;;;;;;15.70;100.00;100836.41;5042164;28;20052;-67
2023/08/27 08:13:21;;;;;;;12.07;5.80;;;;;;;15.79;100.00;100826.31;5043497;28;20426;-67
2023/08/27 08:15:49;;;;;;;8.82;5.50;;;;;;;15.83;100.00;100829.41;5045663;28;20108;-67
2023/08/27 08:18:14;;;;;;;9.27;5.57;;;;;;;15.83;100.00;100824.06;5041438;28;20025;-67
2023/08/27 08:20:40;;;;;;;10.23;5.63;;;;;;;15.77;99.33;100823.84;5044166;28;20039;-67
2023/08/27 08:23:05;;;;;;;8.73;5.13;;;;;;;15.80;99.38;100820.75;5038045;28;20555;-67
2023/08/27 08:25:33;;;;;;;8.95;5.10;;;;;;;15.84;99.02;100828.38;5042101;28;20456;-67
2023/08/27 08:27:58;;;;;;;8.82;5.80;;;;;;;15.91;99.11;100831.91;5042868;28;20100;-67
2023/08/27 08:30:23;;;;;;;11.23;5.65;;;;;;;15.99;98.80;100826.34;5039602;28;20108;-67
2023/08/27 08:32:49;;;;;;;9.80;5.22;;;;;;;16.11;98.93;100840.75;5039988;28;20056;-67
2023/08/27 08:35:14;;;;;;;8.75;4.20;;;;;;;16.16;97.64;100853.53;5043341;28;20025;-66
2023/08/27 08:37:39;;;;;;;8.63;4.13;;;;;;;16.14;96.00;100847.56;5041533;28;20497;-67
2023/08/27 08:40:05;;;;;;;6.03;4.00;;;;;;;16.15;95.36;100839.31;5037624;28;20044;-67
2023/08/27 08:42:34;;;;;;;7.50;3.88;;;;;;;16.17;95.51;100842.59;5043960;28;20078;-67
2023/08/27 08:45:21;;;;;;;12.68;4.50;;;;;;;16.20;94.88;100846.75;5037922;28;20044;-67
2023/08/27 08:47:47;;;;;;;8.30;4.40;;;;;;;16.24;94.70;100846.13;5033188;28;20021;-67
2023/08/27 08:50:14;;;;;;;6.28;3.90;;;;;;;16.37;94.52;100839.91;5030699;28;20569;-67
2023/08/27 08:52:39;;;;;;;8.15;4.53;;;;;;;16.63;94.60;100836.34;5041326;28;20018;-67
2023/08/27 08:55:09;;;;;;;7.32;4.60;;;;;;;16.69;93.80;100830.19;5049440;28;20036;-67
2023/08/27 08:57:38;;;;;;;6.68;4.30;;;;;;;16.77;93.08;100826.44;5043762;28;20032;-67
2023/08/27 09:00:04;;;;;;;6.35;3.30;;;;;;;16.72;91.35;100832.44;5043616;28;20032;-67
2023/08/27 09:02:29;;;;;;;6.82;3.00;;;;;;;16.69;91.14;100824.81;5033650;28;20025;-67
2023/08/27 09:04:56;;;;;;;6.28;3.30;;;;;;;16.67;90.45;100826.88;5042013;28;20259;-67
2023/08/27 09:07:21;;;;;;;5.25;2.88;;;;;;;16.64;89.98;100828.09;5042225;28;20021;-66
2023/08/27 09:09:51;;;;;;;4.85;2.70;;;;;;;16.64;89.27;100822.72;5045352;28;20021;-67
2023/08/27 09:12:18;;;;;;;8.35;2.83;;;;;;;16.60;89.25;100826.88;5046889;28;20035;-67
2023/08/27 09:14:43;;;;;;;8.98;3.33;;;;;;;16.56;88.44;100814.94;5047505;28;20388;-67
2023/08/27 09:17:10;;;;;;;5.55;2.80;;;;;;;16.62;88.27;100808.72;5041770;28;20021;-67
2023/08/27 09:19:35;;;;;;;6.85;2.50;;;;;;;16.62;87.81;100811.41;5045979;28;20521;-66
2023/08/27 09:22:01;;;;;;;7.25;2.50;;;;;;;16.55;86.88;100807.09;5040410;28;20056;-67
2023/08/27 09:24:26;;;;;;;6.35;2.47;;;;;;;16.48;86.45;100801.75;5044468;28;20026;-67
2023/08/27 09:26:51;;;;;;;5.75;2.30;;;;;;;16.43;86.06;100801.53;5049192;28;20028;-67
2023/08/27 09:29:17;;;;;;;5.05;2.63;;;;;;;16.42;85.83;100800.72;5044819;28;20018;-67
2023/08/27 09:31:44;;;;;;;4.38;2.20;;;;;;;16.54;86.22;100797.41;5046474;28;20029;-66
2023/08/27 09:34:11;;;;;;;5.10;2.10;;;;;;;16.70;85.71;100786.22;5043066;28;20028;-67
2023/08/27 09:36:37;;;;;;;5.47;2.20;;;;;;;16.94;84.90;100792.75;5050168;28;20494;-67
2023/08/27 09:39:10;;;;;;;2.28;1.52;;;;;;;17.09;83.26;100784.44;5041283;28;20078;-67
2023/08/27 09:41:46;;;;;;;4.38;1.73;;;;;;;17.20;81.46;100781.06;5040901;28;20036;-66
2023/08/27 09:44:12;;;;;;;5.38;1.70;;;;;;;17.29;80.18;100779.75;5037291;28;20040;-67
2023/08/27 09:46:38;;;;;;;3.22;1.80;;;;;;;17.39;79.33;100766.69;5038580;28;20043;-66
2023/08/27 09:49:06;;;;;;;5.13;2.03;;;;;;;17.52;79.75;100771.97;5034254;28;20037;-67
2023/08/27 09:51:33;;;;;;;4.88;1.63;;;;;;;17.61;79.44;100781.38;5029498;28;20487;-67
2023/08/27 09:53:58;;;;;;;4.85;1.83;;;;;;;17.72;78.10;100773.72;5038726;28;20379;-67
2023/08/27 09:56:25;;;;;;;4.25;1.75;;;;;;;17.72;77.48;100776.41;5029309;28;20032;-66
2023/08/27 09:58:53;;;;;;;4.20;1.90;;;;;;;17.77;76.56;100779.25;5035073;28;20025;-68
2023/08/27 10:01:19;;;;;;;4.72;1.63;;;;;;;17.78;75.97;100780.88;5031174;28;20040;-67
2023/08/27 10:03:46;;;;;;;5.32;1.70;;;;;;;17.68;75.39;100775.19;5033768;28;20025;-67
2023/08/27 10:06:12;;;;;;;3.50;1.50;;;;;;;17.62;74.79;100776.84;5037423;28;20035;-66
2023/08/27 10:08:50;;;;;;;5.63;1.60;;;;;;;17.59;73.41;100770.03;5043377;28;20020;-67
2023/08/27 10:11:16;;;;;;;5.40;1.30;;;;;;;17.59;73.10;100775.41;5044932;28;20028;-66
2023/08/27 10:13:44;;;;;;;5.43;1.45;;;;;;;17.74;73.14;100785.06;5050770;28;20138;-66
2023/08/27 10:16:11;;;;;;;4.75;1.67;;;;;;;17.97;73.11;100774.53;5032000;28;20039;-67
2023/08/27 10:18:37;;;;;;;3.38;1.52;;;;;;;18.19;74.12;100777.59;5046030;28;20397;-67
2023/08/27 10:21:04;;;;;;;5.20;1.80;;;;;;;18.33;73.33;100783.69;5037446;28;20025;-67
2023/08/27 10:23:31;;;;;;;6.47;1.85;;;;;;;18.37;72.67;100784.88;5044571;28;20028;-66
2023/08/27 10:25:58;;;;;;;6.25;1.65;;;;;;;18.35;71.65;100778.91;5040246;28;20021;-66
2023/08/27 10:28:26;;;;;;;5.30;1.60;;;;;;;18.28;71.42;100781.69;5041430;28;20035;-67
2023/08/27 10:30:52;;;;;;;4.70;1.42;;;;;;;18.15;70.79;100792.53;5033705;28;20024;-67
2023/08/27 10:33:18;;;;;;;6.30;1.40;;;;;;;17.92;70.61;100777.03;5037364;28;20029;-67
2023/08/27 10:35:46;;;;;;;4.82;1.50;;;;;;;17.73;70.63;100768.13;5045818;28;20022;-67
2023/08/27 10:38:15;;;;;;;5.57;1.33;;;;;;;17.73;71.30;100768.13;5041609;28;20030;-66
2023/08/27 10:40:43;;;;;;;6.38;1.58;;;;;;;18.00;72.47;100779.47;5035224;28;20028;-66
2023/08/27 10:43:16;;;;;;;3.45;1.45;;;;;;;18.13;72.58;100779.31;5033796;28;20506;-67
2023/08/27 10:45:41;;;;;;;4.65;1.50;;;;;;;18.19;71.87;100782.97;5036522;28;20050;-67
2023/08/27 10:48:15;;;;;;;5.25;1.40;;;;;;;18.07;70.64;100782.91;5036825;28;20029;-66
2023/08/27 10:50:48;;;;;;;3.47;1.40;;;;;;;17.97;70.52;100787.97;5036262;28;20032;-66
2023/08/27 10:53:15;;;;;;;5.10;1.20;;;;;;;17.84;69.70;100791.56;5040132;28;20064;-66
2023/08/27 10:55:45;;;;;;;3.92;1.35;;;;;;;17.74;70.34;100793.13;5041220;28;20017;-66
2023/08/27 10:58:21;;;;;;;5.10;1.52;;;;;;;17.55;71.26;100790.31;5044842;28;20494;-67
2023/08/27 11:01:00;;;;;;;3.42;1.20;;;;;;;17.35;71.87;100811.13;5034679;28;20036;-67
2023/08/27 11:03:26;;;;;;;;;;;;;;;17.52;72.11;100835.59;5036227;28;20033;-66
2023/08/27 11:06:10;;;;;;;0.93;0.40;;;;;;;16.95;69.83;100845.34;5039070;28;19970;-67
2023/08/27 11:08:35;;;;;;;1.52;0.70;;;;;;;16.44;68.98;100835.34;5033220;28;20029;-66
2023/08/27 11:11:13;;;;;;;1.33;0.77;;;;;;;16.05;69.46;100834.38;5036443;28;20687;-66
2023/08/27 11:13:41;;;;;;;1.17;0.70;;;;;;;15.85;70.30;100846.91;5034276;28;20025;-67
2023/08/27 11:16:16;;;;;;;4.50;1.17;;;;;;;15.60;72.27;100884.16;5041263;28;20064;-68
2023/08/27 11:18:48;;;;;;;5.80;1.38;;;;;;;14.91;73.89;100846.84;5040286;28;20029;-67